Time;durP1;ratioP1;P1;durP2;ratioP2;P2;SDS_P1;SDS_P2;PMS_P1;PMS_P2;Temp;Humidity;BMP_temperature;BMP_pressure;BME280_temperature;BME280_humidity;BME280_pressure;Samples;Min_cycle;Max_cycle;Signal;HPM_P1;HPM_P2
2021/01/29 00:00:53;;;;;;;15.55;5.88;;;10.20;99.90;;;;;;5075950;28;20708;-78
2021/01/29 00:03:20;;;;;;;16.25;5.95;;;10.20;99.90;;;;;;5083864;28;20600;-78
2021/01/29 00:05:51;;;;;;;10.93;6.00;;;10.20;99.90;;;;;;5088982;28;20204;-79
2021/01/29 00:08:18;;;;;;;19.73;6.95;;;10.10;99.90;;;;;;5085066;28;20271;-79
2021/01/29 00:10:45;;;;;;;20.17;6.65;;;10.20;99.90;;;;;;5087708;28;20203;-79
2021/01/29 00:13:12;;;;;;;13.35;5.43;;;10.20;99.90;;;;;;5092998;28;20675;-78
2021/01/29 00:15:39;;;;;;;14.10;5.35;;;10.20;99.90;;;;;;5086075;28;20202;-78
2021/01/29 00:18:06;;;;;;;15.38;6.18;;;10.30;99.90;;;;;;5073553;28;20260;-78
2021/01/29 00:20:32;;;;;;;19.60;6.03;;;10.20;99.90;;;;;;5072879;28;20538;-79
2021/01/29 00:22:59;;;;;;;13.38;5.82;;;10.30;99.90;;;;;;5073478;28;20213;-78
2021/01/29 00:25:28;;;;;;;18.38;6.43;;;10.20;99.90;;;;;;5077170;28;20195;-78
2021/01/29 00:27:55;;;;;;;16.17;5.32;;;10.20;99.90;;;;;;5085252;28;20236;-76
2021/01/29 00:30:23;;;;;;;12.43;5.40;;;10.30;99.90;;;;;;5082763;28;20226;-77
2021/01/29 00:32:51;;;;;;;14.35;5.65;;;10.30;99.90;;;;;;5077087;28;20207;-78
2021/01/29 00:35:19;;;;;;;14.98;5.82;;;10.30;99.90;;;;;;5077309;28;20206;-78
2021/01/29 00:37:47;;;;;;;13.20;5.68;;;10.20;99.90;;;;;;5077147;28;20694;-77
2021/01/29 00:40:14;;;;;;;15.35;5.55;;;10.40;99.90;;;;;;5076788;28;20687;-77
2021/01/29 00:42:40;;;;;;;12.23;5.20;;;10.40;99.90;;;;;;5076949;28;20719;-77
2021/01/29 00:45:10;;;;;;;11.63;5.55;;;10.30;99.90;;;;;;5076835;28;20199;-77
2021/01/29 00:47:36;;;;;;;10.80;5.18;;;10.30;99.90;;;;;;5067480;28;20343;-77
2021/01/29 00:50:05;;;;;;;12.60;5.25;;;10.40;99.90;;;;;;5076673;28;20675;-77
2021/01/29 00:52:32;;;;;;;12.60;5.43;;;10.40;99.90;;;;;;5076974;28;20209;-77
2021/01/29 00:54:58;;;;;;;8.43;5.10;;;10.40;99.90;;;;;;5076922;28;20282;-79
2021/01/29 00:57:24;;;;;;;11.13;5.47;;;10.40;99.90;;;;;;5076899;28;20301;-78
2021/01/29 00:59:50;;;;;;;10.40;4.80;;;10.40;99.90;;;;;;5077291;28;20293;-77
2021/01/29 01:02:17;;;;;;;9.77;5.20;;;10.50;99.90;;;;;;5076781;28;20701;-78
2021/01/29 01:04:43;;;;;;;9.98;4.50;;;10.50;99.90;;;;;;5077072;28;20605;-78
2021/01/29 01:07:13;;;;;;;7.40;4.38;;;10.50;99.90;;;;;;5081373;28;20226;-77
2021/01/29 01:09:39;;;;;;;4.70;3.85;;;10.50;99.90;;;;;;5076697;28;20259;-77
2021/01/29 01:12:06;;;;;;;9.05;4.50;;;10.50;99.90;;;;;;5076677;28;20299;-77
2021/01/29 01:14:32;;;;;;;5.25;4.05;;;10.40;99.90;;;;;;5076633;28;20309;-78
2021/01/29 01:16:59;;;;;;;8.95;4.20;;;10.40;99.90;;;;;;5076605;28;20206;-77
2021/01/29 01:19:25;;;;;;;5.80;4.00;;;10.40;99.90;;;;;;5075420;28;20233;-77
2021/01/29 01:21:51;;;;;;;7.00;3.75;;;10.40;99.90;;;;;;5068849;28;20654;-77
2021/01/29 01:24:19;;;;;;;9.13;4.55;;;10.40;99.90;;;;;;5076064;28;20207;-79
2021/01/29 01:26:45;;;;;;;6.88;4.03;;;10.40;99.90;;;;;;5078403;28;20219;-78
2021/01/29 01:29:11;;;;;;;6.30;3.90;;;10.50;99.90;;;;;;5096936;28;20198;-79
2021/01/29 01:31:38;;;;;;;4.00;3.40;;;10.40;99.90;;;;;;5096541;28;20551;-78
2021/01/29 01:34:04;;;;;;;7.60;3.70;;;10.40;99.90;;;;;;5090098;28;20636;-77
2021/01/29 01:36:30;;;;;;;5.10;3.85;;;10.50;99.90;;;;;;5076107;28;20214;-77
2021/01/29 01:38:57;;;;;;;5.95;3.38;;;10.40;99.90;;;;;;5095400;28;20210;-77
2021/01/29 01:41:24;;;;;;;6.97;3.60;;;10.50;99.90;;;;;;5096304;28;20305;-77
2021/01/29 01:43:50;;;;;;;6.25;3.88;;;10.40;99.90;;;;;;5093161;28;20215;-78
2021/01/29 01:46:19;;;;;;;6.28;3.80;;;10.50;99.90;;;;;;5085334;28;20230;-77
2021/01/29 01:48:58;;;;;;;3.35;3.05;;;10.50;99.90;;;;;;5096520;28;20202;-78
2021/01/29 01:51:33;;;;;;;5.60;3.45;;;10.50;99.90;;;;;;5096295;28;20235;-77
2021/01/29 01:54:05;;;;;;;3.50;3.20;;;10.50;99.90;;;;;;5081373;28;20201;-77
2021/01/29 01:56:41;;;;;;;4.97;3.30;;;10.50;99.90;;;;;;5086204;28;20221;-77
2021/01/29 01:59:12;;;;;;;4.25;3.53;;;10.40;99.90;;;;;;5090100;28;20214;-77
2021/01/29 02:01:39;;;;;;;6.28;3.80;;;10.50;99.90;;;;;;5085625;28;20289;-77
2021/01/29 02:04:06;;;;;;;4.85;3.10;;;10.50;99.90;;;;;;5081586;28;20203;-77
2021/01/29 02:06:45;;;;;;;3.13;2.25;;;10.50;99.90;;;;;;5095777;28;20314;-77
2021/01/29 02:09:14;;;;;;;3.13;2.30;;;10.60;99.90;;;;;;5079652;28;20198;-78
2021/01/29 02:11:41;;;;;;;1.70;1.60;;;10.50;99.90;;;;;;5083862;28;20206;-77
2021/01/29 02:14:07;;;;;;;1.58;1.00;;;10.50;99.90;;;;;;5095676;28;20212;-78
2021/01/29 02:16:42;;;;;;;2.38;1.00;;;10.50;99.90;;;;;;5089504;28;20233;-77
2021/01/29 02:19:57;;;;;;;1.98;1.10;;;10.50;99.90;;;;;;5075525;28;20247;-77
2021/01/29 02:23:02;;;;;;;1.60;1.50;;;10.50;99.90;;;;;;5067895;28;20564;-77
2021/01/29 02:25:59;;;;;;;1.50;1.40;;;10.50;99.90;;;;;;5068865;28;20197;-77
2021/01/29 02:28:48;;;;;;;1.90;1.75;;;10.60;99.90;;;;;;5089146;28;20198;-77
2021/01/29 02:31:38;;;;;;;3.35;2.35;;;10.70;99.90;;;;;;5075396;28;20205;-78
2021/01/29 02:34:45;;;;;;;1.98;1.85;;;10.60;99.90;;;;;;5091929;28;20194;-77
2021/01/29 02:37:53;;;;;;;1.85;1.70;;;10.70;99.90;;;;;;5075958;28;20230;-77
2021/01/29 02:40:27;;;;;;;2.08;1.70;;;10.70;99.90;;;;;;5064539;28;20202;-78
2021/01/29 02:43:13;;;;;;;2.45;1.70;;;10.70;99.90;;;;;;5088674;28;20565;-78
2021/01/29 02:45:46;;;;;;;2.55;1.80;;;10.60;99.90;;;;;;5075157;28;20202;-78
2021/01/29 02:48:20;;;;;;;2.42;1.63;;;10.60;99.90;;;;;;5075090;28;20198;-78
2021/01/29 02:50:53;;;;;;;3.65;1.92;;;10.70;99.90;;;;;;5074940;28;20202;-78
2021/01/29 02:53:27;;;;;;;2.80;1.60;;;10.70;99.90;;;;;;5074235;28;20277;-78
2021/01/29 02:56:03;;;;;;;2.38;1.60;;;10.70;99.90;;;;;;5085813;28;20200;-79
2021/01/29 02:58:38;;;;;;;3.92;1.80;;;10.70;99.90;;;;;;5075678;28;20286;-78
2021/01/29 03:01:12;;;;;;;1.88;1.67;;;10.70;99.90;;;;;;5074644;28;20199;-78
2021/01/29 03:03:48;;;;;;;1.92;1.50;;;10.70;99.90;;;;;;5079374;28;20190;-78
2021/01/29 03:06:21;;;;;;;2.95;1.70;;;10.70;99.90;;;;;;5082612;28;20215;-78
2021/01/29 03:08:54;;;;;;;1.80;1.40;;;10.70;99.90;;;;;;5079493;28;20663;-78
2021/01/29 03:11:28;;;;;;;2.83;1.20;;;10.70;99.90;;;;;;5094491;28;20198;-78
2021/01/29 03:14:02;;;;;;;4.38;1.00;;;10.70;99.90;;;;;;5075351;28;20208;-79
2021/01/29 03:16:32;;;;;;;1.48;1.30;;;10.70;99.90;;;;;;5074246;28;20684;-78
2021/01/29 03:19:02;;;;;;;1.00;1.00;;;10.70;99.90;;;;;;5074450;28;20199;-78
2021/01/29 03:21:34;;;;;;;1.23;1.00;;;10.70;99.90;;;;;;5086116;28;20213;-77
2021/01/29 03:24:04;;;;;;;1.00;0.90;;;10.70;99.90;;;;;;5076242;28;20570;-80
2021/01/29 03:26:35;;;;;;;1.23;0.82;;;10.70;99.90;;;;;;5085060;28;20218;-78
2021/01/29 03:29:09;;;;;;;1.00;0.80;;;10.70;99.90;;;;;;5076649;28;20194;-78
2021/01/29 03:31:37;;;;;;;1.20;1.10;;;10.70;99.90;;;;;;5073840;28;20199;-79
2021/01/29 03:34:09;;;;;;;1.10;1.00;;;10.70;99.90;;;;;;5077072;28;20304;-78
2021/01/29 03:36:42;;;;;;;1.23;0.90;;;10.60;99.90;;;;;;5084405;28;20219;-77
2021/01/29 03:39:12;;;;;;;0.90;0.90;;;10.60;99.90;;;;;;5073782;28;20209;-78
2021/01/29 03:41:44;;;;;;;1.75;0.93;;;10.60;99.90;;;;;;5074056;28;20294;-78
2021/01/29 03:44:18;;;;;;;1.00;0.90;;;10.50;99.90;;;;;;5074034;28;20194;-78
2021/01/29 03:46:56;;;;;;;0.80;0.80;;;10.50;99.90;;;;;;5081973;28;20209;-79
2021/01/29 03:49:37;;;;;;;1.20;1.10;;;10.40;99.90;;;;;;5077442;28;20204;-78
2021/01/29 03:52:11;;;;;;;1.13;0.85;;;10.50;99.90;;;;;;5083890;28;20535;-77
2021/01/29 03:54:46;;;;;;;1.75;1.23;;;10.50;99.90;;;;;;5090769;28;20277;-77
2021/01/29 03:57:22;;;;;;;4.03;1.30;;;10.40;99.90;;;;;;5073545;28;20202;-78
2021/01/29 04:00:03;;;;;;;1.30;1.20;;;10.40;99.90;;;;;;5091881;28;20186;-77
2021/01/29 04:02:37;;;;;;;2.25;1.40;;;10.40;99.90;;;;;;5081750;28;20289;-78
2021/01/29 04:05:10;;;;;;;1.70;1.40;;;10.50;99.90;;;;;;5078791;28;20284;-78
2021/01/29 04:07:39;;;;;;;1.70;1.35;;;10.40;99.90;;;;;;5081557;28;20233;-78
2021/01/29 04:10:09;;;;;;;2.55;1.80;;;10.60;99.90;;;;;;5073416;28;20212;-79
2021/01/29 04:12:41;;;;;;;2.38;2.10;;;10.40;99.90;;;;;;5073478;28;20209;-79
2021/01/29 04:15:13;;;;;;;3.58;2.00;;;10.50;99.90;;;;;;5077245;28;20281;-79
2021/01/29 04:17:45;;;;;;;2.60;2.25;;;10.30;99.90;;;;;;5082210;28;20685;-79
2021/01/29 04:20:17;;;;;;;3.80;2.33;;;10.30;99.90;;;;;;5087605;28;20209;-77
2021/01/29 04:22:48;;;;;;;3.53;2.30;;;10.40;99.90;;;;;;5073544;28;20205;-77
2021/01/29 04:25:19;;;;;;;3.55;2.00;;;10.40;99.90;;;;;;5076553;28;20204;-78
2021/01/29 04:27:50;;;;;;;3.67;2.00;;;10.40;99.90;;;;;;5083492;28;20217;-77
2021/01/29 04:30:22;;;;;;;10.13;2.22;;;10.40;99.90;;;;;;5089865;28;21548;-78
2021/01/29 04:32:53;;;;;;;4.47;2.13;;;10.40;99.90;;;;;;5083972;28;20224;-78
2021/01/29 04:35:21;;;;;;;4.18;2.10;;;10.50;99.90;;;;;;5073120;28;20206;-79
2021/01/29 04:37:59;;;;;;;6.43;2.80;;;10.50;99.90;;;;;;5077583;28;20194;-78
2021/01/29 04:40:30;;;;;;;8.02;2.60;;;10.50;99.90;;;;;;5093401;28;20204;-80
2021/01/29 04:43:33;;;;;;;4.75;2.47;;;10.50;99.90;;;;;;5074103;28;20205;-78
2021/01/29 04:46:18;;;;;;;12.88;2.95;;;10.40;99.90;;;;;;5066908;28;20290;-78
2021/01/29 04:48:51;;;;;;;7.57;2.58;;;10.40;99.90;;;;;;5079768;28;20206;-78
2021/01/29 04:51:46;;;;;;;9.45;3.00;;;10.40;99.90;;;;;;5077016;28;20194;-78
2021/01/29 04:54:39;;;;;;;7.95;2.60;;;10.30;99.90;;;;;;5079133;28;20645;-78
2021/01/29 04:57:56;;;;;;;6.78;2.10;;;10.20;99.90;;;;;;5062768;28;20207;-78
2021/01/29 05:01:03;;;;;;;8.57;3.08;;;10.30;99.90;;;;;;5061233;28;20217;-80
2021/01/29 05:04:05;;;;;;;7.70;2.25;;;10.30;99.90;;;;;;5079245;28;20233;-79
2021/01/29 05:06:55;;;;;;;12.88;3.35;;;10.20;99.90;;;;;;5075303;28;20218;-79
2021/01/29 05:10:05;;;;;;;6.13;2.40;;;10.10;99.90;;;;;;5072793;28;20207;-78
2021/01/29 05:13:04;;;;;;;11.40;2.80;;;10.10;99.90;;;;;;5062978;28;20198;-78
2021/01/29 05:16:05;;;;;;;12.98;4.05;;;10.00;99.90;;;;;;5056545;28;20261;-77
2021/01/29 05:19:00;;;;;;;11.35;3.40;;;10.00;99.90;;;;;;5090603;28;20277;-78
2021/01/29 05:21:50;;;;;;;9.77;2.72;;;9.90;99.90;;;;;;5090554;28;20202;-77
2021/01/29 05:24:40;;;;;;;14.15;3.60;;;10.00;99.90;;;;;;5065709;28;20228;-76
2021/01/29 05:27:30;;;;;;;16.70;3.40;;;9.90;99.90;;;;;;5080624;28;20220;-79
2021/01/29 05:30:09;;;;;;;15.55;3.40;;;9.90;99.90;;;;;;5096497;28;20716;-82
2021/01/29 05:33:07;;;;;;;20.08;4.13;;;10.00;99.90;;;;;;5064189;28;20179;-78
2021/01/29 05:35:48;;;;;;;12.40;4.00;;;10.00;99.90;;;;;;5076161;28;20344;-78
2021/01/29 05:38:57;;;;;;;18.88;4.50;;;10.00;99.90;;;;;;5076629;28;20209;-77
2021/01/29 05:42:00;;;;;;;17.02;4.50;;;10.10;99.90;;;;;;5062490;28;20213;-78
2021/01/29 05:44:53;;;;;;;17.40;3.70;;;10.10;99.90;;;;;;5072774;28;20190;-78
2021/01/29 05:47:56;;;;;;;16.67;3.10;;;10.10;99.90;;;;;;5076174;28;20298;-79
2021/01/29 05:50:32;;;;;;;17.00;4.53;;;10.10;99.90;;;;;;5065883;28;20198;-79
2021/01/29 05:53:21;;;;;;;16.88;4.68;;;10.20;99.90;;;;;;5075736;28;20235;-79
2021/01/29 05:55:54;;;;;;;21.75;4.20;;;10.20;99.90;;;;;;5075471;28;20195;-79
2021/01/29 05:58:59;;;;;;;19.08;4.15;;;10.10;99.90;;;;;;5075607;28;20675;-79
2021/01/29 06:01:54;;;;;;;21.45;3.88;;;10.20;99.90;;;;;;5075775;28;20278;-78
2021/01/29 06:04:51;;;;;;;19.52;4.35;;;10.30;99.90;;;;;;5089178;28;20289;-79
2021/01/29 06:07:36;;;;;;;17.02;3.63;;;10.20;99.90;;;;;;5075206;28;20229;-79
2021/01/29 06:10:27;;;;;;;13.75;3.80;;;10.30;99.90;;;;;;5081675;28;20202;-79
2021/01/29 06:13:11;;;;;;;15.88;4.13;;;10.30;99.90;;;;;;5081915;28;20820;-77
2021/01/29 06:16:12;;;;;;;23.20;4.60;;;10.20;99.90;;;;;;5072187;28;20194;-78
2021/01/29 06:19:14;;;;;;;16.38;4.25;;;10.20;99.90;;;;;;5076492;28;20224;-79
2021/01/29 06:22:06;;;;;;;18.50;4.20;;;10.20;99.90;;;;;;5073601;28;20276;-79
2021/01/29 06:25:08;;;;;;;20.50;4.65;;;10.10;99.90;;;;;;5067132;28;20198;-79
2021/01/29 06:27:58;;;;;;;19.52;5.15;;;10.10;99.90;;;;;;5062321;28;20715;-80
2021/01/29 06:30:35;;;;;;;18.25;4.50;;;10.10;99.90;;;;;;5075249;28;20191;-80
2021/01/29 06:33:16;;;;;;;18.75;4.65;;;10.10;99.90;;;;;;5075362;28;20224;-80
2021/01/29 06:36:20;;;;;;;19.75;4.00;;;10.10;99.90;;;;;;5119669;27;769853;-79
2021/01/29 06:39:28;;;;;;;23.33;4.85;;;10.00;99.90;;;;;;5127462;28;20197;-81
2021/01/29 06:42:28;;;;;;;20.38;5.45;;;10.10;99.90;;;;;;5101089;28;20677;-79
2021/01/29 06:45:24;;;;;;;19.30;4.25;;;10.00;99.90;;;;;;5098255;28;20277;-78
2021/01/29 06:48:29;;;;;;;26.85;5.32;;;10.10;99.90;;;;;;5111245;28;20208;-79
2021/01/29 06:51:41;;;;;;;19.73;4.88;;;10.10;99.90;;;;;;5103682;28;20201;-78
2021/01/29 06:54:27;;;;;;;23.33;5.30;;;10.10;99.90;;;;;;5061166;28;20231;-78
2021/01/29 06:57:07;;;;;;;21.58;5.50;;;10.00;99.90;;;;;;5048190;28;20203;-78
2021/01/29 07:00:30;;;;;;;22.05;4.55;;;10.00;99.90;;;;;;5096557;28;20208;-79
2021/01/29 07:03:26;;;;;;;23.52;5.50;;;10.00;99.90;;;;;;5100906;28;20327;-78
2021/01/29 07:06:14;;;;;;;26.80;4.78;;;10.10;99.90;;;;;;5122798;28;20201;-78
2021/01/29 07:08:58;;;;;;;20.20;4.22;;;9.90;99.90;;;;;;5117804;28;20253;-79
2021/01/29 07:12:03;;;;;;;20.48;4.90;;;9.90;99.90;;;;;;5115390;28;20242;-78
2021/01/29 07:14:44;;;;;;;33.58;5.20;;;9.80;99.90;;;;;;5124118;28;20307;-78
2021/01/29 07:17:15;;;;;;;31.85;5.07;;;9.70;99.90;;;;;;5117573;28;20674;-77
2021/01/29 07:20:09;;;;;;;28.25;5.03;;;9.70;99.90;;;;;;5116954;28;20198;-79
2021/01/29 07:23:12;;;;;;;23.13;5.15;;;9.60;99.90;;;;;;5110846;28;20186;-77
2021/01/29 07:25:50;;;;;;;22.30;5.15;;;9.70;99.90;;;;;;5117076;28;20643;-79
2021/01/29 07:28:33;;;;;;;25.23;4.30;;;9.70;99.90;;;;;;5130780;28;20196;-80
2021/01/29 07:31:38;;;;;;;20.55;4.85;;;9.70;99.90;;;;;;5118952;28;20232;-79
2021/01/29 07:34:12;;;;;;;27.30;5.95;;;9.70;99.90;;;;;;5100455;28;20197;-81
2021/01/29 07:36:56;;;;;;;28.80;5.30;;;9.70;99.90;;;;;;5130824;28;20547;-78
2021/01/29 07:40:11;;;;;;;31.90;5.75;;;9.60;99.90;;;;;;5117888;28;20666;-81
2021/01/29 07:43:06;;;;;;;35.65;7.32;;;9.70;99.90;;;;;;5110223;28;20280;-79
2021/01/29 07:45:56;;;;;;;40.97;6.82;;;9.60;99.90;;;;;;5101668;28;20217;-79
2021/01/29 07:48:45;;;;;;;36.20;6.47;;;9.60;99.90;;;;;;5105663;28;20200;-80
2021/01/29 07:51:20;;;;;;;27.85;6.25;;;9.60;99.90;;;;;;5099671;28;20254;-79
2021/01/29 07:53:58;;;;;;;27.95;6.47;;;9.70;99.90;;;;;;5107534;28;20193;-80
2021/01/29 07:56:38;;;;;;;29.75;7.30;;;9.60;99.90;;;;;;5098328;28;20208;-80
2021/01/29 07:59:20;;;;;;;24.13;5.38;;;9.70;99.90;;;;;;5096526;28;20190;-80
2021/01/29 08:01:54;;;;;;;27.85;5.93;;;9.70;99.90;;;;;;5097106;28;20193;-81
2021/01/29 08:04:36;;;;;;;27.88;5.70;;;9.80;99.90;;;;;;5091419;28;20596;-81
2021/01/29 08:07:14;;;;;;;31.13;6.90;;;9.70;99.90;;;;;;5104843;28;20270;-84
2021/01/29 08:09:45;;;;;;;30.55;5.78;;;9.80;99.90;;;;;;5099461;28;20610;-81
2021/01/29 08:12:16;;;;;;;31.52;6.50;;;9.80;99.90;;;;;;5098973;28;20210;-82
2021/01/29 08:15:02;;;;;;;31.63;6.55;;;9.80;99.90;;;;;;5103084;28;20544;-81
2021/01/29 08:17:39;;;;;;;31.27;6.10;;;9.90;99.90;;;;;;5102644;28;21101;-82
2021/01/29 08:20:23;;;;;;;38.80;7.53;;;9.90;99.90;;;;;;5103279;28;20583;-81
2021/01/29 08:22:59;;;;;;;38.17;6.97;;;10.00;99.90;;;;;;5101244;28;20205;-82
2021/01/29 08:25:53;;;;;;;30.88;7.20;;;9.90;99.90;;;;;;5101523;28;20213;-81
2021/01/29 08:29:01;;;;;;;28.65;6.38;;;10.00;99.90;;;;;;5103417;28;20313;-81
2021/01/29 08:32:05;;;;;;;39.13;6.63;;;10.10;99.90;;;;;;5100120;28;20203;-82
2021/01/29 08:34:58;;;;;;;31.20;6.28;;;10.10;99.90;;;;;;5072977;28;20225;-82
2021/01/29 08:37:36;;;;;;;26.05;6.43;;;10.10;99.90;;;;;;5103119;28;20202;-81
2021/01/29 08:40:19;;;;;;;26.90;5.45;;;10.10;99.90;;;;;;5101175;28;20198;-82
2021/01/29 08:42:59;;;;;;;36.90;6.72;;;10.10;99.90;;;;;;5103417;28;20194;-81
2021/01/29 08:45:40;;;;;;;27.08;6.90;;;10.20;99.90;;;;;;5104482;28;20237;-80
2021/01/29 08:48:34;;;;;;;23.98;6.60;;;10.10;99.90;;;;;;5104808;28;20200;-82
2021/01/29 08:51:23;;;;;;;24.33;5.72;;;10.10;99.90;;;;;;5097148;28;20284;-81
2021/01/29 08:54:08;;;;;;;35.78;7.03;;;10.30;99.90;;;;;;5102072;28;20201;-80
2021/01/29 08:56:42;;;;;;;32.63;6.57;;;10.20;99.90;;;;;;5099267;28;20641;-81
2021/01/29 08:59:11;;;;;;;23.73;5.97;;;10.30;99.90;;;;;;5098624;28;20193;-82
2021/01/29 09:01:45;;;;;;;33.85;5.20;;;10.40;99.90;;;;;;5103049;28;20194;-80
2021/01/29 09:04:24;;;;;;;26.45;5.85;;;10.30;99.90;;;;;;5101192;28;20213;-80
2021/01/29 09:06:54;;;;;;;33.70;6.82;;;10.30;99.90;;;;;;5101147;28;20667;-78
2021/01/29 09:09:24;;;;;;;31.15;6.07;;;10.40;99.90;;;;;;5099736;28;20558;-79
2021/01/29 09:11:55;;;;;;;23.75;5.88;;;10.40;99.90;;;;;;5104582;28;20676;-80
2021/01/29 09:14:27;;;;;;;30.08;6.30;;;10.40;99.90;;;;;;5097216;28;20344;-79
2021/01/29 09:17:01;;;;;;;32.90;6.20;;;10.40;99.90;;;;;;5104726;28;20216;-80
2021/01/29 09:19:29;;;;;;;24.35;6.13;;;10.50;99.90;;;;;;5102759;28;20645;-79
2021/01/29 09:22:07;;;;;;;32.20;5.40;;;10.50;99.90;;;;;;5096526;28;20271;-80
2021/01/29 09:24:42;;;;;;;27.77;6.05;;;10.60;99.90;;;;;;5094353;28;20208;-79
2021/01/29 09:27:41;;;;;;;32.50;6.10;;;10.60;99.90;;;;;;5094395;28;20280;-80
2021/01/29 09:30:16;;;;;;;28.38;5.18;;;10.60;99.90;;;;;;5103019;28;20210;-80
2021/01/29 09:32:50;;;;;;;30.25;6.50;;;10.70;99.90;;;;;;5106509;28;20640;-77
2021/01/29 09:35:28;;;;;;;30.45;5.40;;;10.80;99.90;;;;;;5103845;28;20233;-80
2021/01/29 09:37:57;;;;;;;33.97;6.30;;;11.00;99.90;;;;;;5107319;28;20196;-79
2021/01/29 09:40:27;;;;;;;22.02;5.30;;;10.90;99.90;;;;;;5094198;28;20202;-79
2021/01/29 09:43:11;;;;;;;33.78;7.07;;;10.90;99.90;;;;;;5098550;28;20202;-78
2021/01/29 09:45:39;;;;;;;27.05;5.13;;;10.90;99.90;;;;;;5110898;28;20197;-79
2021/01/29 09:48:11;;;;;;;27.52;6.35;;;10.80;99.90;;;;;;5100532;28;20658;-79
2021/01/29 09:50:40;;;;;;;33.70;7.00;;;10.80;99.90;;;;;;5102646;28;20289;-79
2021/01/29 09:53:23;;;;;;;26.05;5.82;;;10.90;99.90;;;;;;5102390;28;20251;-79
2021/01/29 09:56:03;;;;;;;39.22;6.57;;;10.80;99.90;;;;;;5105414;28;20688;-82
2021/01/29 09:59:11;;;;;;;25.70;5.75;;;10.90;99.90;;;;;;5102302;28;20233;-79
2021/01/29 10:01:40;;;;;;;36.38;6.32;;;11.00;99.90;;;;;;5096872;28;20202;-80
2021/01/29 10:04:12;;;;;;;31.30;6.57;;;11.20;99.90;;;;;;5096136;28;20194;-80
2021/01/29 10:06:48;;;;;;;30.45;6.43;;;11.20;99.90;;;;;;5101702;28;20205;-80
2021/01/29 10:09:17;;;;;;;24.75;5.78;;;11.20;99.90;;;;;;5101437;28;20198;-80
2021/01/29 10:11:47;;;;;;;29.15;5.65;;;11.10;99.90;;;;;;5097223;28;20286;-79
2021/01/29 10:14:19;;;;;;;28.55;5.85;;;11.10;99.90;;;;;;5103987;28;20254;-79
2021/01/29 10:16:53;;;;;;;26.00;5.72;;;11.00;99.90;;;;;;5114120;28;20203;-79
2021/01/29 10:19:39;;;;;;;22.42;5.32;;;11.10;99.90;;;;;;5103059;28;20198;-79
2021/01/29 10:22:39;;;;;;;28.10;5.43;;;11.10;99.90;;;;;;5094200;28;20604;-79
2021/01/29 10:25:15;;;;;;;28.08;5.32;;;11.10;99.90;;;;;;5093781;28;20268;-80
2021/01/29 10:27:49;;;;;;;28.33;6.38;;;11.10;99.90;;;;;;5103400;28;20550;-80
2021/01/29 10:30:26;;;;;;;34.50;6.53;;;11.00;99.90;;;;;;5096878;28;20198;-79
2021/01/29 10:32:58;;;;;;;26.30;6.53;;;10.90;99.90;;;;;;5093580;28;20634;-80
2021/01/29 10:35:29;;;;;;;29.80;5.85;;;10.80;99.90;;;;;;5110672;28;20236;-81
2021/01/29 10:38:03;;;;;;;32.90;6.32;;;10.80;99.90;;;;;;5109813;28;20196;-79
2021/01/29 10:40:37;;;;;;;28.35;7.40;;;10.80;99.90;;;;;;5101082;28;20194;-79
2021/01/29 10:43:15;;;;;;;24.20;6.93;;;10.90;99.90;;;;;;5093668;28;20209;-79
2021/01/29 10:45:59;;;;;;;25.77;6.40;;;10.90;99.90;;;;;;5093899;28;20194;-80
2021/01/29 10:48:45;;;;;;;30.48;6.00;;;11.10;99.90;;;;;;5101680;28;20201;-80
2021/01/29 10:51:34;;;;;;;34.67;6.72;;;11.00;99.90;;;;;;5099808;28;20219;-79
2021/01/29 10:54:04;;;;;;;21.27;6.00;;;11.10;99.90;;;;;;5111250;28;20259;-80
2021/01/29 10:56:42;;;;;;;33.58;7.38;;;11.20;99.90;;;;;;5109631;28;20213;-80
2021/01/29 10:59:17;;;;;;;32.75;7.15;;;11.30;99.90;;;;;;5093359;28;20194;-80
2021/01/29 11:01:48;;;;;;;27.33;6.57;;;11.40;99.90;;;;;;5099371;28;20209;-80
2021/01/29 11:04:21;;;;;;;26.80;5.50;;;11.50;99.90;;;;;;5101269;28;20206;-81
2021/01/29 11:06:50;;;;;;;20.27;5.25;;;11.40;99.90;;;;;;5107870;28;20280;-80
2021/01/29 11:09:23;;;;;;;25.65;5.32;;;11.40;99.90;;;;;;5105682;28;20203;-82
2021/01/29 11:11:59;;;;;;;33.45;5.60;;;11.40;99.90;;;;;;5109034;28;20205;-82
2021/01/29 11:14:31;;;;;;;28.67;6.47;;;11.60;99.90;;;;;;5092735;28;20571;-81
2021/01/29 11:17:05;;;;;;;28.70;6.18;;;11.40;99.90;;;;;;5112887;28;20652;-80
2021/01/29 11:19:36;;;;;;;27.00;5.95;;;11.20;99.90;;;;;;5113522;28;20562;-81
2021/01/29 11:22:13;;;;;;;27.33;6.15;;;11.20;99.90;;;;;;5110779;28;20231;-80
2021/01/29 11:24:56;;;;;;;31.45;6.13;;;11.20;99.90;;;;;;5097087;28;20202;-80
2021/01/29 11:27:30;;;;;;;28.92;6.53;;;11.10;99.90;;;;;;5097127;28;20721;-82
2021/01/29 11:30:05;;;;;;;35.42;6.70;;;11.30;99.90;;;;;;5096828;28;20198;-81
2021/01/29 11:32:34;;;;;;;27.00;6.35;;;11.50;99.90;;;;;;5103725;28;20197;-82
2021/01/29 11:35:15;;;;;;;24.58;5.45;;;11.70;99.90;;;;;;5117323;28;20235;-81
2021/01/29 11:38:07;;;;;;;29.08;6.40;;;11.70;99.90;;;;;;5099181;28;20645;-81
2021/01/29 11:40:42;;;;;;;28.75;6.50;;;11.60;99.90;;;;;;5110004;28;20655;-80
2021/01/29 11:43:15;;;;;;;31.63;6.47;;;11.40;99.90;;;;;;5103662;28;20204;-80
2021/01/29 11:45:48;;;;;;;29.52;6.32;;;11.20;99.90;;;;;;5102850;28;20198;-80
2021/01/29 11:48:19;;;;;;;28.33;5.55;;;11.00;99.90;;;;;;5096606;28;20236;-80
2021/01/29 11:50:51;;;;;;;29.02;6.00;;;10.90;99.90;;;;;;5096734;28;20565;-81
2021/01/29 11:53:25;;;;;;;32.97;6.70;;;10.90;99.90;;;;;;5096448;28;20205;-79
2021/01/29 11:55:58;;;;;;;32.28;6.93;;;10.70;99.90;;;;;;5096022;28;20701;-79
2021/01/29 11:58:31;;;;;;;33.03;6.60;;;10.70;99.90;;;;;;5096124;28;20190;-80
2021/01/29 12:01:03;;;;;;;32.25;8.10;;;10.70;99.90;;;;;;5095908;28;20541;-78
2021/01/29 12:03:40;;;;;;;28.35;6.90;;;10.60;99.90;;;;;;5102284;28;20186;-78
2021/01/29 12:06:12;;;;;;;27.13;6.40;;;10.60;99.90;;;;;;5102512;28;20558;-78
2021/01/29 12:08:58;;;;;;;25.30;5.88;;;10.70;99.90;;;;;;5102537;28;20201;-77
2021/01/29 12:11:31;;;;;;;25.60;6.78;;;10.80;99.90;;;;;;5116018;28;20229;-77
2021/01/29 12:14:05;;;;;;;30.55;5.82;;;10.90;99.90;;;;;;5107825;28;20658;-78
2021/01/29 12:16:34;;;;;;;26.23;5.30;;;10.70;99.90;;;;;;5097307;28;20217;-78
2021/01/29 12:19:04;;;;;;;30.98;5.38;;;10.90;99.90;;;;;;5108151;28;20208;-78
2021/01/29 12:21:40;;;;;;;22.38;5.22;;;11.10;99.90;;;;;;5095960;28;20593;-78
2021/01/29 12:24:21;;;;;;;26.40;5.53;;;11.20;99.90;;;;;;5116790;28;20208;-79
2021/01/29 12:26:57;;;;;;;21.92;4.65;;;11.30;99.90;;;;;;5103334;28;20585;-80
2021/01/29 12:29:31;;;;;;;23.17;4.65;;;11.40;99.90;;;;;;5093897;28;20202;-80
2021/01/29 12:32:26;;;;;;;22.92;5.28;;;11.40;99.90;;;;;;5100744;28;20197;-80
2021/01/29 12:35:02;;;;;;;23.23;5.03;;;11.50;99.90;;;;;;5100466;28;20236;-79
2021/01/29 12:37:32;;;;;;;26.55;5.28;;;11.40;99.90;;;;;;5101278;28;20656;-80
2021/01/29 12:40:05;;;;;;;26.15;5.43;;;11.30;99.90;;;;;;5103906;28;20374;-80
2021/01/29 12:42:50;;;;;;;23.27;4.65;;;11.20;99.90;;;;;;5101592;28;20201;-81
2021/01/29 12:45:23;;;;;;;23.00;5.63;;;11.10;99.90;;;;;;5100280;28;20216;-80
2021/01/29 12:47:55;;;;;;;20.95;3.85;;;11.00;99.90;;;;;;5101851;28;20197;-78
2021/01/29 12:50:48;;;;;;;13.27;3.80;;;10.80;99.90;;;;;;5104359;28;20263;-82
2021/01/29 12:53:19;;;;;;;21.05;4.55;;;10.40;99.90;;;;;;5099800;28;20205;-76
2021/01/29 12:55:52;;;;;;;25.08;5.13;;;10.20;99.90;;;;;;5104152;28;20217;-77
2021/01/29 12:58:21;;;;;;;19.02;4.55;;;10.10;99.90;;;;;;5099262;28;20200;-75
2021/01/29 13:00:48;;;;;;;23.42;5.15;;;10.00;99.90;;;;;;5100293;28;20202;-75
2021/01/29 13:03:31;;;;;;;17.63;4.18;;;10.00;99.90;;;;;;5100937;28;20194;-75
2021/01/29 13:06:23;;;;;;;13.73;3.28;;;9.80;99.90;;;;;;5099637;28;20250;-75
2021/01/29 13:09:12;;;;;;;18.48;3.17;;;9.80;99.90;;;;;;5095135;28;20198;-75
2021/01/29 13:11:52;;;;;;;10.77;2.83;;;9.70;99.90;;;;;;5094844;28;20198;-75
2021/01/29 13:14:27;;;;;;;14.38;3.38;;;9.70;99.90;;;;;;5109125;28;20198;-75
2021/01/29 13:17:20;;;;;;;15.35;3.50;;;9.80;99.90;;;;;;5091892;28;20268;-78
2021/01/29 13:19:56;;;;;;;17.63;3.47;;;10.00;99.90;;;;;;5102299;28;20656;-76
2021/01/29 13:22:37;;;;;;;17.65;3.88;;;10.20;99.90;;;;;;5100274;28;20205;-76
2021/01/29 13:25:23;;;;;;;19.45;4.22;;;10.40;99.90;;;;;;5101489;28;20216;-76
2021/01/29 13:27:56;;;;;;;18.25;3.72;;;10.30;99.90;;;;;;5102155;28;20205;-81
2021/01/29 13:30:30;;;;;;;10.10;2.95;;;10.30;99.90;;;;;;5099907;28;20247;-76
2021/01/29 13:32:58;;;;;;;15.95;4.35;;;10.20;99.90;;;;;;5102870;28;20587;-77
2021/01/29 13:35:29;;;;;;;18.45;4.00;;;10.10;99.90;;;;;;5100721;28;20225;-77
2021/01/29 13:38:16;;;;;;;17.63;4.43;;;10.10;99.90;;;;;;5101857;28;20197;-76
2021/01/29 13:40:45;;;;;;;20.05;4.97;;;10.10;99.90;;;;;;5103739;28;20198;-78